Terminal Aerodrome Forecast
Issued by NWS

Home | Current Version | Previous Version | Text Only | Print | Product List | Glossary On
Versions: 1 2 3 4 5 6 7 8 9 10 11 12 13 14 15 16 17 18
000
FTUS43 KIND 041100
TAFBMG
TAF
KBMG 041125Z 0412/0512 00000KT 5SM BR OVC050
     FM041300 VRB04KT P6SM SCT050
     FM041800 33005KT P6SM BKN050
     FM050100 VRB02KT P6SM SCT040
      TEMPO 0509/0512 3SM BR
      AMD LTD TO CLD VIS AND WIND TIL 041300=

USA.gov is the U.S. government's official web portal to all federal, state and local government web resources and services.